createdAt,value
2023-02-22T00:04:29.504Z,0.00
2023-02-22T00:09:29.466Z,0.00
2023-02-22T00:14:29.391Z,0.00
2023-02-22T00:19:29.315Z,0.00
2023-02-22T00:24:29.246Z,0.00
2023-02-22T00:29:34.505Z,0.00
2023-02-22T00:34:29.155Z,0.00
2023-02-22T00:39:29.053Z,0.00
2023-02-22T00:44:29.342Z,0.00
2023-02-22T00:49:28.973Z,0.00
2023-02-22T00:54:28.882Z,0.00
2023-02-22T00:59:28.837Z,0.00
2023-02-22T01:04:28.797Z,0.00
2023-02-22T01:09:28.747Z,0.00
2023-02-22T01:14:28.681Z,0.00
2023-02-22T01:19:28.577Z,0.00
2023-02-22T01:24:28.508Z,0.00
2023-02-22T01:29:28.496Z,0.00
2023-02-22T01:34:28.425Z,0.00
2023-02-22T01:39:28.301Z,0.00
2023-02-22T01:44:28.223Z,0.00
2023-02-22T01:49:28.211Z,0.00
2023-02-22T01:54:28.120Z,0.00
2023-02-22T01:59:28.124Z,0.00
2023-02-22T02:04:28.038Z,0.00
2023-02-22T02:09:27.938Z,0.00
2023-02-22T02:14:27.899Z,0.00
2023-02-22T02:19:27.835Z,0.00
2023-02-22T02:24:27.759Z,0.00
2023-02-22T02:29:27.694Z,0.00
2023-02-22T02:34:27.636Z,0.00
2023-02-22T02:39:27.568Z,0.00
2023-02-22T02:44:27.523Z,0.00
2023-02-22T02:49:27.431Z,0.00
2023-02-22T02:54:27.381Z,0.00
2023-02-22T02:59:27.347Z,0.00
2023-02-22T03:04:27.279Z,0.00
2023-02-22T03:09:27.225Z,0.00
2023-02-22T03:14:27.133Z,0.00
2023-02-22T03:19:27.043Z,0.00
2023-02-22T03:24:26.996Z,0.00
2023-02-22T03:29:26.948Z,0.00
2023-02-22T03:34:26.896Z,0.00
2023-02-22T03:39:26.828Z,0.00
2023-02-22T03:44:26.781Z,0.00
2023-02-22T03:49:26.693Z,0.00
2023-02-22T03:54:26.636Z,0.00
2023-02-22T03:59:26.585Z,0.00
2023-02-22T04:04:26.579Z,0.00
2023-02-22T04:09:26.456Z,0.00
2023-02-22T04:14:27.625Z,0.00
2023-02-22T04:19:26.361Z,0.00
2023-02-22T04:24:26.286Z,0.00
2023-02-22T04:29:26.231Z,0.00
2023-02-22T04:34:26.146Z,0.00
2023-02-22T04:39:26.103Z,0.00
2023-02-22T04:44:26.045Z,0.00
2023-02-22T04:49:25.964Z,0.00
2023-02-22T04:54:25.921Z,0.00
2023-02-22T04:59:25.844Z,0.00
2023-02-22T05:04:25.819Z,0.00
2023-02-22T05:09:25.719Z,0.00
2023-02-22T05:14:25.674Z,0.00
2023-02-22T05:19:25.607Z,0.00
2023-02-22T05:24:25.513Z,0.00
2023-02-22T05:29:25.457Z,0.00
2023-02-22T05:34:25.430Z,0.00
2023-02-22T05:39:25.348Z,1.00
2023-02-22T05:44:25.274Z,5.00
2023-02-22T05:49:25.238Z,12.00
2023-02-22T05:54:25.165Z,28.00
2023-02-22T05:59:26.054Z,65.00
2023-02-22T06:04:25.030Z,130.00
2023-02-22T06:09:24.979Z,233.00
2023-02-22T06:14:24.942Z,367.00
2023-02-22T06:19:24.860Z,532.00
2023-02-22T06:24:24.765Z,719.00
2023-02-22T06:29:24.750Z,931.00
2023-02-22T06:34:24.666Z,1169.00
2023-02-22T06:39:24.578Z,1408.00
2023-02-22T06:44:24.548Z,1665.00
2023-02-22T06:49:24.532Z,1951.00
2023-02-22T06:54:24.439Z,2250.00
2023-02-22T06:59:24.336Z,2587.00
2023-02-22T07:04:24.353Z,2739.00
2023-02-22T07:09:24.240Z,2977.00
2023-02-22T07:14:24.193Z,3104.00
2023-02-22T07:19:24.090Z,3407.00
2023-02-22T07:24:24.095Z,3660.00
2023-02-22T07:29:23.978Z,3816.00
2023-02-22T07:34:23.923Z,3920.00
2023-02-22T07:39:23.876Z,4208.00
2023-02-22T07:44:23.771Z,4410.00
2023-02-22T07:49:23.762Z,4636.00
2023-02-22T07:54:23.663Z,4908.00
2023-02-22T07:59:23.598Z,5307.00
2023-02-22T08:04:23.560Z,5736.00
2023-02-22T08:09:23.539Z,5908.00
2023-02-22T08:14:23.440Z,6084.00
2023-02-22T08:19:23.398Z,6467.00
2023-02-22T08:24:23.300Z,6784.00
2023-02-22T08:29:23.234Z,6920.00
2023-02-22T08:34:23.177Z,6832.00
2023-02-22T08:39:23.099Z,7179.00
2023-02-22T08:44:23.034Z,8058.00
2023-02-22T08:49:23.965Z,9274.00
2023-02-22T08:54:22.939Z,9392.00
2023-02-22T08:59:22.858Z,9285.00
2023-02-22T09:04:22.815Z,10539.00
2023-02-22T09:09:22.729Z,9024.00
2023-02-22T09:14:22.656Z,9346.00
2023-02-22T09:19:22.600Z,9841.00
2023-02-22T09:24:22.568Z,10142.00
2023-02-22T09:29:22.507Z,10404.00
2023-02-22T09:34:22.400Z,10735.00
2023-02-22T09:39:22.514Z,12206.00
2023-02-22T09:44:22.543Z,12330.00
2023-02-22T09:49:22.254Z,11804.00
2023-02-22T09:54:22.185Z,11632.00
2023-02-22T09:59:22.117Z,12059.00
2023-02-22T10:04:22.072Z,11872.00
2023-02-22T10:09:21.968Z,11418.00
2023-02-22T10:14:21.928Z,11541.00
2023-02-22T10:19:21.877Z,11447.00
2023-02-22T10:24:21.766Z,12022.00
2023-02-22T10:29:21.733Z,12445.00
2023-02-22T10:34:21.653Z,14322.00
2023-02-22T10:39:21.642Z,14360.00
2023-02-22T10:44:21.547Z,13272.00
2023-02-22T10:49:21.484Z,13696.00
2023-02-22T10:54:21.411Z,13741.00
2023-02-22T10:59:21.381Z,14900.00
2023-02-22T11:04:21.263Z,14441.00
2023-02-22T11:09:21.209Z,13041.00
2023-02-22T11:14:21.132Z,12989.00
2023-02-22T11:19:21.082Z,12220.00
2023-02-22T11:25:01.234Z,14456.00
2023-02-22T11:29:55.907Z,14937.00
2023-02-22T11:35:08.461Z,11707.00
2023-02-22T11:39:56.758Z,10771.00
2023-02-22T11:44:55.730Z,12492.00
2023-02-22T11:49:55.672Z,11821.00
2023-02-22T11:54:55.569Z,10836.00
2023-02-22T11:59:55.507Z,12012.00
2023-02-22T12:04:55.618Z,11573.00
2023-02-22T12:09:55.381Z,12464.00
2023-02-22T12:14:55.534Z,10774.00
2023-02-22T12:19:55.246Z,11956.00
2023-02-22T12:25:03.998Z,10804.00
2023-02-22T12:29:56.122Z,8545.00
2023-02-22T12:34:55.054Z,11213.00
2023-02-22T12:39:54.985Z,10529.00
2023-02-22T12:44:54.910Z,9670.00
2023-02-22T12:49:54.880Z,9108.00
2023-02-22T12:54:54.802Z,9764.00
2023-02-22T12:59:54.747Z,10766.00
2023-02-22T13:04:54.688Z,11216.00
2023-02-22T13:09:54.613Z,11329.00
2023-02-22T13:14:54.541Z,11142.00
2023-02-22T13:19:54.534Z,10509.00
2023-02-22T13:24:54.409Z,9951.00
2023-02-22T13:29:56.185Z,9598.00
2023-02-22T13:34:54.326Z,8141.00
2023-02-22T13:39:54.239Z,9043.00
2023-02-22T13:44:54.161Z,10308.00
2023-02-22T13:49:54.114Z,8275.00
2023-02-22T13:54:54.086Z,6157.00
2023-02-22T13:59:54.012Z,6735.00
2023-02-22T14:04:53.998Z,6604.00
2023-02-22T14:09:53.824Z,6649.00
2023-02-22T14:14:57.096Z,6309.00
2023-02-22T14:19:53.756Z,7173.00
2023-02-22T14:24:53.707Z,8233.00
2023-02-22T14:29:53.639Z,8620.00
2023-02-22T14:34:53.539Z,8124.00
2023-02-22T14:39:53.462Z,7450.00
2023-02-22T14:44:53.380Z,7156.00
2023-02-22T14:49:53.342Z,6863.00
2023-02-22T14:54:53.276Z,6144.00
2023-02-22T14:59:53.218Z,5332.00
2023-02-22T15:04:53.268Z,4905.00
2023-02-22T15:09:53.075Z,4614.00
2023-02-22T15:14:53.024Z,4494.00
2023-02-22T15:19:52.947Z,4435.00
2023-02-22T15:24:52.880Z,4321.00
2023-02-22T15:29:52.812Z,4213.00
2023-02-22T15:34:52.750Z,3911.00
2023-02-22T15:39:52.684Z,3584.00
2023-02-22T15:44:57.998Z,3192.00
2023-02-22T15:49:52.554Z,2767.00
2023-02-22T15:54:52.493Z,2522.00
2023-02-22T15:59:52.415Z,2138.00
2023-02-22T16:04:59.559Z,1839.00
2023-02-22T16:09:53.290Z,1574.00
2023-02-22T16:14:56.219Z,1287.00
2023-02-22T16:19:52.169Z,1012.00
2023-02-22T16:24:52.164Z,780.00
2023-02-22T16:29:52.066Z,584.00
2023-02-22T16:34:52.019Z,423.00
2023-02-22T16:39:51.918Z,277.00
2023-02-22T16:44:57.211Z,168.00
2023-02-22T16:49:51.793Z,102.00
2023-02-22T16:54:51.732Z,54.00
2023-02-22T16:59:51.683Z,23.00
2023-02-22T17:04:51.613Z,8.00
2023-02-22T17:09:51.575Z,2.00
2023-02-22T17:14:51.509Z,0.00
2023-02-22T17:19:51.445Z,0.00
2023-02-22T17:24:51.338Z,0.00
2023-02-22T17:29:51.297Z,0.00
2023-02-22T17:34:51.253Z,0.00
2023-02-22T17:39:51.171Z,0.00
2023-02-22T17:44:51.104Z,0.00
2023-02-22T17:49:51.043Z,0.00
2023-02-22T17:54:50.998Z,0.00
2023-02-22T17:59:50.895Z,0.00
2023-02-22T18:04:50.854Z,0.00
2023-02-22T18:09:50.790Z,0.00
2023-02-22T18:14:50.715Z,0.00
2023-02-22T18:19:50.736Z,0.00
2023-02-22T18:24:50.587Z,0.00
2023-02-22T18:29:50.905Z,0.00
2023-02-22T18:34:50.513Z,0.00
2023-02-22T18:39:50.451Z,0.00
2023-02-22T18:44:50.358Z,0.00
2023-02-22T18:49:50.285Z,0.00
2023-02-22T18:54:50.225Z,0.00
2023-02-22T18:59:56.958Z,0.00
2023-02-22T19:04:50.088Z,0.00
2023-02-22T19:09:50.053Z,0.00
2023-02-22T19:14:50.002Z,0.00
2023-02-22T19:19:49.926Z,0.00
2023-02-22T19:24:49.833Z,0.00
2023-02-22T19:29:49.799Z,0.00
2023-02-22T19:34:49.699Z,0.00
2023-02-22T19:39:49.633Z,0.00
2023-02-22T19:44:49.592Z,0.00
2023-02-22T19:49:49.508Z,0.00
2023-02-22T19:54:49.454Z,0.00
2023-02-22T19:59:49.398Z,0.00
2023-02-22T20:04:49.362Z,0.00
2023-02-22T20:09:49.290Z,0.00
2023-02-22T20:14:49.195Z,0.00
2023-02-22T20:19:49.152Z,0.00
2023-02-22T20:24:49.081Z,0.00
2023-02-22T20:29:49.005Z,0.00
2023-02-22T20:34:48.957Z,0.00
2023-02-22T20:39:48.877Z,0.00
2023-02-22T20:44:48.858Z,0.00
2023-02-22T20:49:48.761Z,0.00
2023-02-22T20:54:48.720Z,0.00
2023-02-22T20:59:48.691Z,0.00
2023-02-22T21:04:48.595Z,0.00
2023-02-22T21:09:48.512Z,0.00
2023-02-22T21:14:48.476Z,0.00
2023-02-22T21:19:48.379Z,0.00
2023-02-22T21:24:48.323Z,0.00
2023-02-22T21:29:48.270Z,0.00
2023-02-22T21:34:48.196Z,0.00
2023-02-22T21:39:48.191Z,0.00
2023-02-22T21:44:48.089Z,0.00
2023-02-22T21:49:48.011Z,0.00
2023-02-22T21:54:47.983Z,0.00
2023-02-22T21:59:47.858Z,0.00
2023-02-22T22:04:47.820Z,0.00
2023-02-22T22:09:47.765Z,0.00
2023-02-22T22:14:48.024Z,0.00
2023-02-22T22:19:47.621Z,0.00
2023-02-22T22:24:47.533Z,0.00
2023-02-22T22:29:47.507Z,0.00
2023-02-22T22:34:47.421Z,0.00
2023-02-22T22:39:47.375Z,0.00
2023-02-22T22:44:47.293Z,0.00
2023-02-22T22:49:47.233Z,0.00
2023-02-22T22:54:47.190Z,0.00
2023-02-22T22:59:47.117Z,0.00
2023-02-22T23:04:47.033Z,0.00
2023-02-22T23:09:46.972Z,0.00
2023-02-22T23:14:46.888Z,0.00
2023-02-22T23:19:47.598Z,0.00
2023-02-22T23:24:46.795Z,0.00
2023-02-22T23:29:47.134Z,0.00
2023-02-22T23:34:46.596Z,0.00
2023-02-22T23:39:46.544Z,0.00
2023-02-22T23:44:46.479Z,0.00
2023-02-22T23:49:46.422Z,0.00
2023-02-22T23:54:46.353Z,0.00
2023-02-22T23:59:46.261Z,0.00
